sensor_id;sensor_type;location;lat;lon;timestamp;P1;durP1;ratioP1;P2;durP2;ratioP2
56373;SDS011;58212;47.034;7.376;2022-11-12T00:01:06;25.85;;;14.73;;
56373;SDS011;58212;47.034;7.376;2022-11-12T00:03:51;80.00;;;16.77;;
56373;SDS011;58212;47.034;7.376;2022-11-12T00:06:38;97.25;;;19.02;;
56373;SDS011;58212;47.034;7.376;2022-11-12T00:09:23;55.03;;;17.95;;
56373;SDS011;58212;47.034;7.376;2022-11-12T00:12:09;35.95;;;16.25;;
56373;SDS011;58212;47.034;7.376;2022-11-12T00:14:54;51.58;;;16.05;;
56373;SDS011;58212;47.034;7.376;2022-11-12T00:17:41;30.27;;;16.17;;
56373;SDS011;58212;47.034;7.376;2022-11-12T00:20:27;45.25;;;16.40;;
56373;SDS011;58212;47.034;7.376;2022-11-12T00:23:13;16.95;;;15.25;;
56373;SDS011;58212;47.034;7.376;2022-11-12T00:25:59;20.58;;;14.35;;
56373;SDS011;58212;47.034;7.376;2022-11-12T00:28:44;16.63;;;14.93;;
56373;SDS011;58212;47.034;7.376;2022-11-12T00:31:30;22.35;;;14.60;;
56373;SDS011;58212;47.034;7.376;2022-11-12T00:34:18;48.00;;;15.10;;
56373;SDS011;58212;47.034;7.376;2022-11-12T00:37:04;37.88;;;14.07;;
56373;SDS011;58212;47.034;7.376;2022-11-12T00:39:50;67.10;;;15.15;;
56373;SDS011;58212;47.034;7.376;2022-11-12T00:42:35;14.02;;;11.98;;
56373;SDS011;58212;47.034;7.376;2022-11-12T00:45:20;15.77;;;11.90;;
56373;SDS011;58212;47.034;7.376;2022-11-12T00:48:06;13.63;;;12.15;;
56373;SDS011;58212;47.034;7.376;2022-11-12T00:50:59;11.73;;;10.63;;
56373;SDS011;58212;47.034;7.376;2022-11-12T00:53:45;14.43;;;11.38;;
56373;SDS011;58212;47.034;7.376;2022-11-12T00:56:31;12.10;;;11.00;;
56373;SDS011;58212;47.034;7.376;2022-11-12T00:59:17;12.73;;;11.43;;
56373;SDS011;58212;47.034;7.376;2022-11-12T01:02:03;19.25;;;12.20;;
56373;SDS011;58212;47.034;7.376;2022-11-12T01:04:48;12.95;;;11.35;;
56373;SDS011;58212;47.034;7.376;2022-11-12T01:07:35;21.30;;;13.35;;
56373;SDS011;58212;47.034;7.376;2022-11-12T01:10:22;24.98;;;13.20;;
56373;SDS011;58212;47.034;7.376;2022-11-12T01:13:07;14.43;;;12.93;;
56373;SDS011;58212;47.034;7.376;2022-11-12T01:15:53;15.43;;;11.48;;
56373;SDS011;58212;47.034;7.376;2022-11-12T01:18:39;14.02;;;12.50;;
56373;SDS011;58212;47.034;7.376;2022-11-12T01:21:26;13.55;;;12.10;;
56373;SDS011;58212;47.034;7.376;2022-11-12T01:24:15;16.95;;;12.15;;
56373;SDS011;58212;47.034;7.376;2022-11-12T01:27:00;20.83;;;13.20;;
56373;SDS011;58212;47.034;7.376;2022-11-12T01:29:46;33.45;;;13.18;;
56373;SDS011;58212;47.034;7.376;2022-11-12T01:32:33;17.45;;;11.70;;
56373;SDS011;58212;47.034;7.376;2022-11-12T01:35:19;16.02;;;11.20;;
56373;SDS011;58212;47.034;7.376;2022-11-12T01:38:04;12.93;;;10.45;;
56373;SDS011;58212;47.034;7.376;2022-11-12T01:40:51;11.77;;;10.75;;
56373;SDS011;58212;47.034;7.376;2022-11-12T01:43:37;11.18;;;10.18;;
56373;SDS011;58212;47.034;7.376;2022-11-12T01:46:23;11.55;;;10.55;;
56373;SDS011;58212;47.034;7.376;2022-11-12T01:49:13;11.70;;;10.70;;
56373;SDS011;58212;47.034;7.376;2022-11-12T01:52:05;12.88;;;11.32;;
56373;SDS011;58212;47.034;7.376;2022-11-12T01:54:59;13.20;;;11.80;;
56373;SDS011;58212;47.034;7.376;2022-11-12T01:57:49;13.57;;;12.35;;
56373;SDS011;58212;47.034;7.376;2022-11-12T02:00:38;18.05;;;12.00;;
56373;SDS011;58212;47.034;7.376;2022-11-12T02:03:25;12.63;;;11.38;;
56373;SDS011;58212;47.034;7.376;2022-11-12T02:06:12;12.35;;;11.15;;
56373;SDS011;58212;47.034;7.376;2022-11-12T02:09:00;11.73;;;10.63;;
56373;SDS011;58212;47.034;7.376;2022-11-12T02:11:47;12.18;;;10.98;;
56373;SDS011;58212;47.034;7.376;2022-11-12T02:14:35;12.90;;;11.40;;
56373;SDS011;58212;47.034;7.376;2022-11-12T02:17:21;12.88;;;11.55;;
56373;SDS011;58212;47.034;7.376;2022-11-12T02:20:07;17.13;;;11.23;;
56373;SDS011;58212;47.034;7.376;2022-11-12T02:22:55;12.73;;;10.65;;
56373;SDS011;58212;47.034;7.376;2022-11-12T02:25:41;13.20;;;11.90;;
56373;SDS011;58212;47.034;7.376;2022-11-12T02:28:27;12.23;;;11.02;;
56373;SDS011;58212;47.034;7.376;2022-11-12T02:31:14;13.43;;;11.95;;
56373;SDS011;58212;47.034;7.376;2022-11-12T02:34:00;11.23;;;10.23;;
56373;SDS011;58212;47.034;7.376;2022-11-12T02:36:46;11.55;;;10.55;;
56373;SDS011;58212;47.034;7.376;2022-11-12T02:39:33;11.38;;;10.38;;
56373;SDS011;58212;47.034;7.376;2022-11-12T02:42:19;11.07;;;10.18;;
56373;SDS011;58212;47.034;7.376;2022-11-12T02:45:04;10.68;;;9.77;;
56373;SDS011;58212;47.034;7.376;2022-11-12T02:47:50;11.25;;;10.30;;
56373;SDS011;58212;47.034;7.376;2022-11-12T02:50:36;11.38;;;10.27;;
56373;SDS011;58212;47.034;7.376;2022-11-12T02:53:21;16.05;;;10.85;;
56373;SDS011;58212;47.034;7.376;2022-11-12T02:56:08;23.35;;;12.10;;
56373;SDS011;58212;47.034;7.376;2022-11-12T02:58:54;15.88;;;12.85;;
56373;SDS011;58212;47.034;7.376;2022-11-12T03:01:40;16.65;;;12.15;;
56373;SDS011;58212;47.034;7.376;2022-11-12T03:04:26;12.85;;;11.52;;
56373;SDS011;58212;47.034;7.376;2022-11-12T03:07:11;21.00;;;12.63;;
56373;SDS011;58212;47.034;7.376;2022-11-12T03:09:57;14.30;;;11.82;;
56373;SDS011;58212;47.034;7.376;2022-11-12T03:12:44;26.13;;;13.23;;
56373;SDS011;58212;47.034;7.376;2022-11-12T03:15:29;15.88;;;11.75;;
56373;SDS011;58212;47.034;7.376;2022-11-12T03:18:15;19.60;;;12.10;;
56373;SDS011;58212;47.034;7.376;2022-11-12T03:21:00;13.40;;;11.35;;
56373;SDS011;58212;47.034;7.376;2022-11-12T03:23:46;13.63;;;11.77;;
56373;SDS011;58212;47.034;7.376;2022-11-12T03:26:31;11.25;;;10.15;;
56373;SDS011;58212;47.034;7.376;2022-11-12T03:29:18;13.82;;;11.02;;
56373;SDS011;58212;47.034;7.376;2022-11-12T03:32:03;14.10;;;11.35;;
56373;SDS011;58212;47.034;7.376;2022-11-12T03:34:49;11.18;;;10.02;;
56373;SDS011;58212;47.034;7.376;2022-11-12T03:37:35;18.50;;;10.55;;
56373;SDS011;58212;47.034;7.376;2022-11-12T03:40:20;14.68;;;10.45;;
56373;SDS011;58212;47.034;7.376;2022-11-12T03:43:07;11.02;;;9.23;;
56373;SDS011;58212;47.034;7.376;2022-11-12T03:45:54;10.68;;;9.57;;
56373;SDS011;58212;47.034;7.376;2022-11-12T03:48:39;14.27;;;9.82;;
56373;SDS011;58212;47.034;7.376;2022-11-12T03:51:25;15.38;;;10.35;;
56373;SDS011;58212;47.034;7.376;2022-11-12T03:54:10;13.70;;;10.07;;
56373;SDS011;58212;47.034;7.376;2022-11-12T03:56:56;13.82;;;10.13;;
56373;SDS011;58212;47.034;7.376;2022-11-12T03:59:41;18.20;;;11.18;;
56373;SDS011;58212;47.034;7.376;2022-11-12T04:02:28;15.00;;;11.13;;
56373;SDS011;58212;47.034;7.376;2022-11-12T04:05:14;22.23;;;11.43;;
56373;SDS011;58212;47.034;7.376;2022-11-12T04:08:18;29.60;;;12.05;;
56373;SDS011;58212;47.034;7.376;2022-11-12T04:11:20;16.48;;;11.27;;
56373;SDS011;58212;47.034;7.376;2022-11-12T04:14:05;16.33;;;10.60;;
56373;SDS011;58212;47.034;7.376;2022-11-12T04:16:51;14.25;;;11.35;;
56373;SDS011;58212;47.034;7.376;2022-11-12T04:19:55;12.52;;;11.13;;
56373;SDS011;58212;47.034;7.376;2022-11-12T04:22:58;14.25;;;11.15;;
56373;SDS011;58212;47.034;7.376;2022-11-12T04:25:44;13.23;;;11.23;;
56373;SDS011;58212;47.034;7.376;2022-11-12T04:28:47;12.43;;;11.23;;
56373;SDS011;58212;47.034;7.376;2022-11-12T04:31:47;12.80;;;10.45;;
56373;SDS011;58212;47.034;7.376;2022-11-12T04:34:33;11.15;;;10.15;;
56373;SDS011;58212;47.034;7.376;2022-11-12T04:37:20;11.00;;;9.85;;
56373;SDS011;58212;47.034;7.376;2022-11-12T04:40:06;9.63;;;8.75;;
56373;SDS011;58212;47.034;7.376;2022-11-12T04:43:08;10.65;;;9.65;;
56373;SDS011;58212;47.034;7.376;2022-11-12T04:46:14;15.60;;;8.85;;
56373;SDS011;58212;47.034;7.376;2022-11-12T04:48:59;22.77;;;9.68;;
56373;SDS011;58212;47.034;7.376;2022-11-12T04:51:45;31.00;;;10.63;;
56373;SDS011;58212;47.034;7.376;2022-11-12T04:54:50;36.55;;;11.02;;
56373;SDS011;58212;47.034;7.376;2022-11-12T04:57:36;31.63;;;11.13;;
56373;SDS011;58212;47.034;7.376;2022-11-12T05:00:22;19.73;;;10.48;;
56373;SDS011;58212;47.034;7.376;2022-11-12T05:03:09;13.55;;;9.95;;
56373;SDS011;58212;47.034;7.376;2022-11-12T05:05:59;9.88;;;8.95;;
56373;SDS011;58212;47.034;7.376;2022-11-12T05:08:45;24.05;;;9.43;;
56373;SDS011;58212;47.034;7.376;2022-11-12T05:11:32;48.53;;;13.20;;
56373;SDS011;58212;47.034;7.376;2022-11-12T05:14:17;29.02;;;11.40;;
56373;SDS011;58212;47.034;7.376;2022-11-12T05:17:03;31.52;;;11.55;;
56373;SDS011;58212;47.034;7.376;2022-11-12T05:19:49;34.90;;;12.30;;
56373;SDS011;58212;47.034;7.376;2022-11-12T05:22:34;25.73;;;11.57;;
56373;SDS011;58212;47.034;7.376;2022-11-12T05:25:20;20.95;;;11.43;;
56373;SDS011;58212;47.034;7.376;2022-11-12T05:28:07;75.22;;;13.80;;
56373;SDS011;58212;47.034;7.376;2022-11-12T05:30:53;47.63;;;12.93;;
56373;SDS011;58212;47.034;7.376;2022-11-12T05:33:38;32.45;;;11.38;;
56373;SDS011;58212;47.034;7.376;2022-11-12T05:36:23;20.13;;;10.93;;
56373;SDS011;58212;47.034;7.376;2022-11-12T05:39:09;30.10;;;10.90;;
56373;SDS011;58212;47.034;7.376;2022-11-12T05:41:55;32.03;;;11.18;;
56373;SDS011;58212;47.034;7.376;2022-11-12T05:44:42;14.50;;;10.02;;
56373;SDS011;58212;47.034;7.376;2022-11-12T05:47:28;19.67;;;10.90;;
56373;SDS011;58212;47.034;7.376;2022-11-12T05:50:13;12.43;;;10.20;;
56373;SDS011;58212;47.034;7.376;2022-11-12T05:52:59;43.00;;;11.15;;
56373;SDS011;58212;47.034;7.376;2022-11-12T05:55:45;21.63;;;9.82;;
56373;SDS011;58212;47.034;7.376;2022-11-12T05:58:30;16.77;;;10.73;;
56373;SDS011;58212;47.034;7.376;2022-11-12T06:01:17;12.25;;;8.65;;
56373;SDS011;58212;47.034;7.376;2022-11-12T06:04:03;11.80;;;7.95;;
56373;SDS011;58212;47.034;7.376;2022-11-12T06:06:48;10.98;;;8.10;;
56373;SDS011;58212;47.034;7.376;2022-11-12T06:09:34;8.75;;;7.70;;
56373;SDS011;58212;47.034;7.376;2022-11-12T06:12:19;9.55;;;7.32;;
56373;SDS011;58212;47.034;7.376;2022-11-12T06:15:05;7.38;;;6.68;;
56373;SDS011;58212;47.034;7.376;2022-11-12T06:17:53;7.63;;;6.95;;
56373;SDS011;58212;47.034;7.376;2022-11-12T06:20:39;7.20;;;6.60;;
56373;SDS011;58212;47.034;7.376;2022-11-12T06:23:24;6.35;;;5.85;;
56373;SDS011;58212;47.034;7.376;2022-11-12T06:26:10;7.18;;;6.38;;
56373;SDS011;58212;47.034;7.376;2022-11-12T06:28:55;6.95;;;6.35;;
56373;SDS011;58212;47.034;7.376;2022-11-12T06:31:41;7.35;;;6.65;;
56373;SDS011;58212;47.034;7.376;2022-11-12T06:34:28;7.00;;;6.35;;
56373;SDS011;58212;47.034;7.376;2022-11-12T06:37:13;6.45;;;5.85;;
56373;SDS011;58212;47.034;7.376;2022-11-12T06:39:59;7.63;;;6.88;;
56373;SDS011;58212;47.034;7.376;2022-11-12T06:42:44;6.40;;;5.85;;
56373;SDS011;58212;47.034;7.376;2022-11-12T06:45:30;6.53;;;5.95;;
56373;SDS011;58212;47.034;7.376;2022-11-12T06:48:15;7.32;;;6.63;;
56373;SDS011;58212;47.034;7.376;2022-11-12T06:51:09;7.38;;;6.78;;
56373;SDS011;58212;47.034;7.376;2022-11-12T06:53:59;7.72;;;6.80;;
56373;SDS011;58212;47.034;7.376;2022-11-12T06:56:44;13.07;;;8.35;;
56373;SDS011;58212;47.034;7.376;2022-11-12T06:59:30;9.98;;;7.90;;
56373;SDS011;58212;47.034;7.376;2022-11-12T07:02:16;8.15;;;7.35;;
56373;SDS011;58212;47.034;7.376;2022-11-12T07:05:01;12.77;;;7.90;;
56373;SDS011;58212;47.034;7.376;2022-11-12T07:07:48;10.00;;;8.90;;
56373;SDS011;58212;47.034;7.376;2022-11-12T07:10:34;9.75;;;8.70;;
56373;SDS011;58212;47.034;7.376;2022-11-12T07:13:19;13.93;;;9.65;;
56373;SDS011;58212;47.034;7.376;2022-11-12T07:16:06;13.48;;;9.18;;
56373;SDS011;58212;47.034;7.376;2022-11-12T07:18:53;11.73;;;9.18;;
56373;SDS011;58212;47.034;7.376;2022-11-12T07:21:39;20.02;;;9.70;;
56373;SDS011;58212;47.034;7.376;2022-11-12T07:24:25;24.17;;;9.02;;
56373;SDS011;58212;47.034;7.376;2022-11-12T07:27:11;10.88;;;8.40;;
56373;SDS011;58212;47.034;7.376;2022-11-12T07:29:56;8.18;;;7.38;;
56373;SDS011;58212;47.034;7.376;2022-11-12T07:32:42;10.35;;;7.97;;
56373;SDS011;58212;47.034;7.376;2022-11-12T07:35:27;14.07;;;8.93;;
56373;SDS011;58212;47.034;7.376;2022-11-12T07:38:13;18.83;;;9.50;;
56373;SDS011;58212;47.034;7.376;2022-11-12T07:41:01;28.40;;;9.52;;
56373;SDS011;58212;47.034;7.376;2022-11-12T07:43:48;9.95;;;7.95;;
56373;SDS011;58212;47.034;7.376;2022-11-12T07:46:35;9.65;;;7.45;;
56373;SDS011;58212;47.034;7.376;2022-11-12T07:49:20;29.33;;;9.30;;
56373;SDS011;58212;47.034;7.376;2022-11-12T07:52:06;126.97;;;13.52;;
56373;SDS011;58212;47.034;7.376;2022-11-12T07:54:54;19.35;;;9.05;;
56373;SDS011;58212;47.034;7.376;2022-11-12T07:57:46;35.25;;;8.75;;
56373;SDS011;58212;47.034;7.376;2022-11-12T08:00:31;11.85;;;7.93;;
56373;SDS011;58212;47.034;7.376;2022-11-12T08:03:17;55.25;;;10.38;;
56373;SDS011;58212;47.034;7.376;2022-11-12T08:06:03;16.00;;;7.45;;
56373;SDS011;58212;47.034;7.376;2022-11-12T08:08:50;16.25;;;7.18;;
56373;SDS011;58212;47.034;7.376;2022-11-12T08:11:38;7.65;;;6.93;;
56373;SDS011;58212;47.034;7.376;2022-11-12T08:14:26;5.90;;;5.40;;
56373;SDS011;58212;47.034;7.376;2022-11-12T08:17:12;6.00;;;5.40;;
56373;SDS011;58212;47.034;7.376;2022-11-12T08:19:57;5.60;;;5.10;;
56373;SDS011;58212;47.034;7.376;2022-11-12T08:22:43;6.93;;;6.32;;
56373;SDS011;58212;47.034;7.376;2022-11-12T08:25:28;6.07;;;5.57;;
56373;SDS011;58212;47.034;7.376;2022-11-12T08:28:13;6.80;;;6.15;;
56373;SDS011;58212;47.034;7.376;2022-11-12T08:31:02;9.60;;;6.28;;
56373;SDS011;58212;47.034;7.376;2022-11-12T08:33:50;7.22;;;6.40;;
56373;SDS011;58212;47.034;7.376;2022-11-12T08:36:36;7.78;;;7.03;;
56373;SDS011;58212;47.034;7.376;2022-11-12T08:39:23;7.90;;;6.63;;
56373;SDS011;58212;47.034;7.376;2022-11-12T08:42:09;7.28;;;5.93;;
56373;SDS011;58212;47.034;7.376;2022-11-12T08:44:56;7.05;;;6.05;;
56373;SDS011;58212;47.034;7.376;2022-11-12T08:47:42;7.70;;;6.90;;
56373;SDS011;58212;47.034;7.376;2022-11-12T08:50:28;8.55;;;6.40;;
56373;SDS011;58212;47.034;7.376;2022-11-12T08:53:14;7.70;;;6.90;;
56373;SDS011;58212;47.034;7.376;2022-11-12T08:56:00;11.10;;;7.07;;
56373;SDS011;58212;47.034;7.376;2022-11-12T08:58:46;9.07;;;7.03;;
56373;SDS011;58212;47.034;7.376;2022-11-12T09:01:31;10.23;;;7.40;;
56373;SDS011;58212;47.034;7.376;2022-11-12T09:04:18;8.27;;;7.10;;
56373;SDS011;58212;47.034;7.376;2022-11-12T09:07:03;15.15;;;7.07;;
56373;SDS011;58212;47.034;7.376;2022-11-12T09:09:49;9.75;;;7.30;;
56373;SDS011;58212;47.034;7.376;2022-11-12T09:12:34;11.63;;;6.85;;
56373;SDS011;58212;47.034;7.376;2022-11-12T09:15:21;21.38;;;8.13;;
56373;SDS011;58212;47.034;7.376;2022-11-12T09:18:09;18.10;;;8.23;;
56373;SDS011;58212;47.034;7.376;2022-11-12T09:21:01;9.32;;;7.70;;
56373;SDS011;58212;47.034;7.376;2022-11-12T09:23:49;17.30;;;8.63;;
56373;SDS011;58212;47.034;7.376;2022-11-12T09:26:34;8.32;;;7.43;;
56373;SDS011;58212;47.034;7.376;2022-11-12T09:29:20;9.73;;;8.18;;
56373;SDS011;58212;47.034;7.376;2022-11-12T09:32:07;15.15;;;8.48;;
56373;SDS011;58212;47.034;7.376;2022-11-12T09:34:52;10.95;;;8.85;;
56373;SDS011;58212;47.034;7.376;2022-11-12T09:37:40;18.75;;;9.57;;
56373;SDS011;58212;47.034;7.376;2022-11-12T09:40:30;16.17;;;8.38;;
56373;SDS011;58212;47.034;7.376;2022-11-12T09:43:24;15.88;;;9.32;;
56373;SDS011;58212;47.034;7.376;2022-11-12T09:46:16;24.65;;;8.98;;
56373;SDS011;58212;47.034;7.376;2022-11-12T09:49:16;9.32;;;8.43;;
56373;SDS011;58212;47.034;7.376;2022-11-12T09:52:04;12.65;;;8.07;;
56373;SDS011;58212;47.034;7.376;2022-11-12T09:55:05;8.27;;;7.45;;
56373;SDS011;58212;47.034;7.376;2022-11-12T09:57:57;8.63;;;7.40;;
56373;SDS011;58212;47.034;7.376;2022-11-12T10:00:46;13.13;;;8.35;;
56373;SDS011;58212;47.034;7.376;2022-11-12T10:03:38;9.25;;;7.55;;
56373;SDS011;58212;47.034;7.376;2022-11-12T10:06:32;12.68;;;9.82;;
56373;SDS011;58212;47.034;7.376;2022-11-12T10:09:21;12.30;;;9.48;;
56373;SDS011;58212;47.034;7.376;2022-11-12T10:12:14;13.32;;;8.82;;
56373;SDS011;58212;47.034;7.376;2022-11-12T10:15:34;8.90;;;8.00;;
56373;SDS011;58212;47.034;7.376;2022-11-12T10:19:03;11.68;;;9.02;;
56373;SDS011;58212;47.034;7.376;2022-11-12T10:22:18;10.93;;;9.80;;
56373;SDS011;58212;47.034;7.376;2022-11-12T10:25:17;29.60;;;9.88;;
56373;SDS011;58212;47.034;7.376;2022-11-12T10:28:10;13.48;;;9.70;;
56373;SDS011;58212;47.034;7.376;2022-11-12T10:31:05;17.15;;;8.70;;
56373;SDS011;58212;47.034;7.376;2022-11-12T10:34:04;19.42;;;8.80;;
56373;SDS011;58212;47.034;7.376;2022-11-12T10:37:05;21.30;;;9.05;;
56373;SDS011;58212;47.034;7.376;2022-11-12T10:39:54;20.50;;;9.90;;
56373;SDS011;58212;47.034;7.376;2022-11-12T10:42:54;16.98;;;8.55;;
56373;SDS011;58212;47.034;7.376;2022-11-12T10:45:43;32.17;;;11.68;;
56373;SDS011;58212;47.034;7.376;2022-11-12T10:48:30;14.90;;;10.52;;
56373;SDS011;58212;47.034;7.376;2022-11-12T10:51:23;20.25;;;13.73;;
56373;SDS011;58212;47.034;7.376;2022-11-12T10:54:18;40.90;;;11.70;;
56373;SDS011;58212;47.034;7.376;2022-11-12T10:57:19;14.60;;;9.20;;
56373;SDS011;58212;47.034;7.376;2022-11-12T11:00:16;16.52;;;9.65;;
56373;SDS011;58212;47.034;7.376;2022-11-12T11:03:09;19.13;;;10.23;;
56373;SDS011;58212;47.034;7.376;2022-11-12T11:06:02;45.65;;;11.45;;
56373;SDS011;58212;47.034;7.376;2022-11-12T11:08:49;88.43;;;14.70;;
56373;SDS011;58212;47.034;7.376;2022-11-12T11:11:36;12.68;;;9.80;;
56373;SDS011;58212;47.034;7.376;2022-11-12T11:14:25;11.43;;;9.98;;
56373;SDS011;58212;47.034;7.376;2022-11-12T11:17:16;10.77;;;9.68;;
56373;SDS011;58212;47.034;7.376;2022-11-12T11:20:04;11.60;;;9.10;;
56373;SDS011;58212;47.034;7.376;2022-11-12T11:22:58;11.98;;;9.80;;
56373;SDS011;58212;47.034;7.376;2022-11-12T11:25:48;16.20;;;9.95;;
56373;SDS011;58212;47.034;7.376;2022-11-12T11:28:38;33.72;;;11.00;;
56373;SDS011;58212;47.034;7.376;2022-11-12T11:31:33;18.42;;;11.00;;
56373;SDS011;58212;47.034;7.376;2022-11-12T11:34:26;10.15;;;9.15;;
56373;SDS011;58212;47.034;7.376;2022-11-12T11:37:23;13.57;;;10.77;;
56373;SDS011;58212;47.034;7.376;2022-11-12T11:40:15;11.15;;;9.02;;
56373;SDS011;58212;47.034;7.376;2022-11-12T11:43:15;18.58;;;11.38;;
56373;SDS011;58212;47.034;7.376;2022-11-12T11:46:17;13.50;;;10.93;;
56373;SDS011;58212;47.034;7.376;2022-11-12T11:49:18;15.00;;;11.07;;
56373;SDS011;58212;47.034;7.376;2022-11-12T11:52:32;12.57;;;11.27;;
56373;SDS011;58212;47.034;7.376;2022-11-12T11:55:32;11.32;;;9.98;;
56373;SDS011;58212;47.034;7.376;2022-11-12T11:58:34;14.13;;;10.90;;
56373;SDS011;58212;47.034;7.376;2022-11-12T12:01:35;26.15;;;11.15;;
56373;SDS011;58212;47.034;7.376;2022-11-12T12:04:35;13.10;;;10.70;;
56373;SDS011;58212;47.034;7.376;2022-11-12T12:07:33;10.60;;;9.50;;
56373;SDS011;58212;47.034;7.376;2022-11-12T12:10:26;18.63;;;10.25;;
56373;SDS011;58212;47.034;7.376;2022-11-12T12:13:26;18.98;;;11.07;;
56373;SDS011;58212;47.034;7.376;2022-11-12T12:16:28;15.98;;;10.60;;
56373;SDS011;58212;47.034;7.376;2022-11-12T12:19:26;25.25;;;12.52;;
56373;SDS011;58212;47.034;7.376;2022-11-12T12:22:20;19.55;;;11.23;;
56373;SDS011;58212;47.034;7.376;2022-11-12T12:25:15;14.40;;;11.63;;
56373;SDS011;58212;47.034;7.376;2022-11-12T12:28:07;16.05;;;12.45;;
56373;SDS011;58212;47.034;7.376;2022-11-12T12:31:00;13.15;;;11.40;;
56373;SDS011;58212;47.034;7.376;2022-11-12T12:33:52;14.07;;;12.23;;
56373;SDS011;58212;47.034;7.376;2022-11-12T12:36:40;32.35;;;12.85;;
56373;SDS011;58212;47.034;7.376;2022-11-12T12:39:32;14.73;;;11.18;;
56373;SDS011;58212;47.034;7.376;2022-11-12T12:42:25;13.13;;;11.73;;
56373;SDS011;58212;47.034;7.376;2022-11-12T12:45:29;24.75;;;11.68;;
56373;SDS011;58212;47.034;7.376;2022-11-12T12:48:24;22.75;;;11.88;;
56373;SDS011;58212;47.034;7.376;2022-11-12T12:51:14;12.82;;;11.48;;
56373;SDS011;58212;47.034;7.376;2022-11-12T12:54:03;14.60;;;11.95;;
56373;SDS011;58212;47.034;7.376;2022-11-12T12:56:49;20.48;;;12.00;;
56373;SDS011;58212;47.034;7.376;2022-11-12T12:59:37;14.35;;;11.75;;
56373;SDS011;58212;47.034;7.376;2022-11-12T13:02:22;24.05;;;13.48;;
56373;SDS011;58212;47.034;7.376;2022-11-12T13:05:21;13.70;;;11.38;;
56373;SDS011;58212;47.034;7.376;2022-11-12T13:08:08;32.05;;;12.57;;
56373;SDS011;58212;47.034;7.376;2022-11-12T13:10:56;13.82;;;12.43;;
56373;SDS011;58212;47.034;7.376;2022-11-12T13:13:42;18.20;;;12.23;;
56373;SDS011;58212;47.034;7.376;2022-11-12T13:19:44;13.27;;;11.38;;
56373;SDS011;58212;47.034;7.376;2022-11-12T13:22:52;12.93;;;11.63;;
56373;SDS011;58212;47.034;7.376;2022-11-12T13:25:38;25.45;;;10.43;;
56373;SDS011;58212;47.034;7.376;2022-11-12T13:28:23;31.65;;;12.60;;
56373;SDS011;58212;47.034;7.376;2022-11-12T13:31:23;11.32;;;10.23;;
56373;SDS011;58212;47.034;7.376;2022-11-12T13:34:11;12.35;;;10.48;;
56373;SDS011;58212;47.034;7.376;2022-11-12T13:37:01;21.75;;;12.80;;
56373;SDS011;58212;47.034;7.376;2022-11-12T13:39:50;25.55;;;11.93;;
56373;SDS011;58212;47.034;7.376;2022-11-12T13:42:36;18.77;;;11.13;;
56373;SDS011;58212;47.034;7.376;2022-11-12T13:45:37;60.15;;;14.80;;
56373;SDS011;58212;47.034;7.376;2022-11-12T13:48:27;16.40;;;11.90;;
56373;SDS011;58212;47.034;7.376;2022-11-12T13:51:18;12.70;;;11.40;;
56373;SDS011;58212;47.034;7.376;2022-11-12T13:54:26;21.65;;;12.45;;
56373;SDS011;58212;47.034;7.376;2022-11-12T13:57:29;22.45;;;12.98;;
56373;SDS011;58212;47.034;7.376;2022-11-12T14:00:20;24.45;;;16.55;;
56373;SDS011;58212;47.034;7.376;2022-11-12T14:03:13;56.65;;;21.70;;
56373;SDS011;58212;47.034;7.376;2022-11-12T14:06:04;18.13;;;14.43;;
56373;SDS011;58212;47.034;7.376;2022-11-12T14:09:01;13.43;;;11.98;;
56373;SDS011;58212;47.034;7.376;2022-11-12T14:12:13;24.40;;;13.25;;
56373;SDS011;58212;47.034;7.376;2022-11-12T14:15:23;15.27;;;11.82;;
56373;SDS011;58212;47.034;7.376;2022-11-12T14:18:19;13.15;;;11.88;;
56373;SDS011;58212;47.034;7.376;2022-11-12T14:21:14;12.77;;;11.30;;
56373;SDS011;58212;47.034;7.376;2022-11-12T14:24:00;12.32;;;10.85;;
56373;SDS011;58212;47.034;7.376;2022-11-12T14:26:47;14.75;;;11.57;;
56373;SDS011;58212;47.034;7.376;2022-11-12T14:29:34;22.63;;;12.88;;
56373;SDS011;58212;47.034;7.376;2022-11-12T14:32:20;14.55;;;10.73;;
56373;SDS011;58212;47.034;7.376;2022-11-12T14:38:12;24.75;;;11.77;;
56373;SDS011;58212;47.034;7.376;2022-11-12T14:41:02;13.80;;;10.57;;
56373;SDS011;58212;47.034;7.376;2022-11-12T14:43:52;11.38;;;10.18;;
56373;SDS011;58212;47.034;7.376;2022-11-12T14:46:43;12.30;;;11.10;;
56373;SDS011;58212;47.034;7.376;2022-11-12T14:49:32;12.05;;;10.75;;
56373;SDS011;58212;47.034;7.376;2022-11-12T14:52:21;11.75;;;10.65;;
56373;SDS011;58212;47.034;7.376;2022-11-12T14:55:11;11.15;;;10.05;;
56373;SDS011;58212;47.034;7.376;2022-11-12T14:58:01;11.27;;;10.05;;
56373;SDS011;58212;47.034;7.376;2022-11-12T15:00:47;14.00;;;11.23;;
56373;SDS011;58212;47.034;7.376;2022-11-12T15:03:36;11.77;;;10.48;;
56373;SDS011;58212;47.034;7.376;2022-11-12T15:06:27;11.85;;;10.68;;
56373;SDS011;58212;47.034;7.376;2022-11-12T15:09:15;10.65;;;9.55;;
56373;SDS011;58212;47.034;7.376;2022-11-12T15:12:05;12.77;;;9.68;;
56373;SDS011;58212;47.034;7.376;2022-11-12T15:15:02;10.38;;;8.88;;
56373;SDS011;58212;47.034;7.376;2022-11-12T15:17:54;15.75;;;10.98;;
56373;SDS011;58212;47.034;7.376;2022-11-12T15:20:43;17.65;;;11.85;;
56373;SDS011;58212;47.034;7.376;2022-11-12T15:23:29;12.50;;;10.65;;
56373;SDS011;58212;47.034;7.376;2022-11-12T15:26:22;12.48;;;10.18;;
56373;SDS011;58212;47.034;7.376;2022-11-12T15:29:17;12.77;;;10.55;;
56373;SDS011;58212;47.034;7.376;2022-11-12T15:35:31;11.25;;;9.90;;
56373;SDS011;58212;47.034;7.376;2022-11-12T15:38:23;12.43;;;11.15;;
56373;SDS011;58212;47.034;7.376;2022-11-12T15:41:18;12.65;;;11.35;;
56373;SDS011;58212;47.034;7.376;2022-11-12T15:44:08;15.40;;;13.63;;
56373;SDS011;58212;47.034;7.376;2022-11-12T15:46:54;15.98;;;13.13;;
56373;SDS011;58212;47.034;7.376;2022-11-12T15:49:48;14.82;;;13.30;;
56373;SDS011;58212;47.034;7.376;2022-11-12T15:52:34;15.07;;;12.68;;
56373;SDS011;58212;47.034;7.376;2022-11-12T15:55:21;16.77;;;14.85;;
56373;SDS011;58212;47.034;7.376;2022-11-12T15:58:10;16.55;;;14.43;;
56373;SDS011;58212;47.034;7.376;2022-11-12T16:00:59;13.65;;;12.18;;
56373;SDS011;58212;47.034;7.376;2022-11-12T16:03:45;13.90;;;12.43;;
56373;SDS011;58212;47.034;7.376;2022-11-12T16:06:30;15.82;;;13.15;;
56373;SDS011;58212;47.034;7.376;2022-11-12T16:09:16;15.77;;;13.05;;
56373;SDS011;58212;47.034;7.376;2022-11-12T16:12:03;14.90;;;13.40;;
56373;SDS011;58212;47.034;7.376;2022-11-12T16:14:48;14.27;;;12.77;;
56373;SDS011;58212;47.034;7.376;2022-11-12T16:17:34;14.82;;;13.32;;
56373;SDS011;58212;47.034;7.376;2022-11-12T16:20:20;15.48;;;13.88;;
56373;SDS011;58212;47.034;7.376;2022-11-12T16:23:07;14.85;;;13.23;;
56373;SDS011;58212;47.034;7.376;2022-11-12T16:25:53;15.30;;;13.60;;
56373;SDS011;58212;47.034;7.376;2022-11-12T16:28:40;16.55;;;14.02;;
56373;SDS011;58212;47.034;7.376;2022-11-12T16:31:26;17.55;;;15.10;;
56373;SDS011;58212;47.034;7.376;2022-11-12T16:34:11;17.08;;;15.20;;
56373;SDS011;58212;47.034;7.376;2022-11-12T16:36:57;19.80;;;15.45;;
56373;SDS011;58212;47.034;7.376;2022-11-12T16:39:42;41.45;;;19.50;;
56373;SDS011;58212;47.034;7.376;2022-11-12T16:42:28;23.48;;;16.27;;
56373;SDS011;58212;47.034;7.376;2022-11-12T16:45:17;23.38;;;17.65;;
56373;SDS011;58212;47.034;7.376;2022-11-12T16:48:05;39.45;;;23.25;;